sensor_id;sensor_type;location;lat;lon;timestamp;P1;durP1;ratioP1;P2;durP2;ratioP2
78108;SDS011;67354;48.068;11.612;2023-03-21T00:00:00;8.80;;;5.93;;
78108;SDS011;67354;48.068;11.612;2023-03-21T00:02:25;9.52;;;5.32;;
78108;SDS011;67354;48.068;11.612;2023-03-21T00:04:51;9.88;;;5.72;;
78108;SDS011;67354;48.068;11.612;2023-03-21T00:07:16;29.25;;;9.57;;
78108;SDS011;67354;48.068;11.612;2023-03-21T00:09:42;69.83;;;16.60;;
78108;SDS011;67354;48.068;11.612;2023-03-21T00:12:07;224.63;;;52.85;;
78108;SDS011;67354;48.068;11.612;2023-03-21T00:14:34;212.20;;;49.75;;
78108;SDS011;67354;48.068;11.612;2023-03-21T00:17:02;153.55;;;41.00;;
78108;SDS011;67354;48.068;11.612;2023-03-21T00:19:28;121.32;;;32.70;;
78108;SDS011;67354;48.068;11.612;2023-03-21T00:21:54;51.05;;;16.58;;
78108;SDS011;67354;48.068;11.612;2023-03-21T00:24:20;35.60;;;11.80;;
78108;SDS011;67354;48.068;11.612;2023-03-21T00:26:46;19.75;;;8.40;;
78108;SDS011;67354;48.068;11.612;2023-03-21T00:29:12;11.82;;;6.00;;
78108;SDS011;67354;48.068;11.612;2023-03-21T00:31:37;19.93;;;8.80;;
78108;SDS011;67354;48.068;11.612;2023-03-21T00:34:03;14.07;;;7.77;;
78108;SDS011;67354;48.068;11.612;2023-03-21T00:36:28;13.93;;;7.63;;
78108;SDS011;67354;48.068;11.612;2023-03-21T00:38:53;18.13;;;7.88;;
78108;SDS011;67354;48.068;11.612;2023-03-21T00:41:19;24.77;;;9.30;;
78108;SDS011;67354;48.068;11.612;2023-03-21T00:43:44;23.00;;;9.77;;
78108;SDS011;67354;48.068;11.612;2023-03-21T00:46:10;17.10;;;7.88;;
78108;SDS011;67354;48.068;11.612;2023-03-21T00:48:35;18.48;;;6.95;;
78108;SDS011;67354;48.068;11.612;2023-03-21T00:51:01;22.85;;;7.60;;
78108;SDS011;67354;48.068;11.612;2023-03-21T00:53:26;20.80;;;8.75;;
78108;SDS011;67354;48.068;11.612;2023-03-21T00:55:52;20.00;;;8.10;;
78108;SDS011;67354;48.068;11.612;2023-03-21T00:58:17;16.35;;;8.05;;
78108;SDS011;67354;48.068;11.612;2023-03-21T01:00:43;13.98;;;7.47;;
78108;SDS011;67354;48.068;11.612;2023-03-21T01:03:11;18.25;;;7.68;;
78108;SDS011;67354;48.068;11.612;2023-03-21T01:05:47;15.35;;;7.22;;
78108;SDS011;67354;48.068;11.612;2023-03-21T01:08:29;12.35;;;6.75;;
78108;SDS011;67354;48.068;11.612;2023-03-21T01:10:55;11.20;;;6.82;;
78108;SDS011;67354;48.068;11.612;2023-03-21T01:13:21;10.75;;;6.78;;
78108;SDS011;67354;48.068;11.612;2023-03-21T01:15:50;11.85;;;6.57;;
78108;SDS011;67354;48.068;11.612;2023-03-21T01:18:17;13.15;;;6.45;;
78108;SDS011;67354;48.068;11.612;2023-03-21T01:20:44;11.77;;;6.88;;
78108;SDS011;67354;48.068;11.612;2023-03-21T01:23:10;10.32;;;6.55;;
78108;SDS011;67354;48.068;11.612;2023-03-21T01:25:36;7.90;;;5.82;;
78108;SDS011;67354;48.068;11.612;2023-03-21T01:28:02;9.07;;;5.45;;
78108;SDS011;67354;48.068;11.612;2023-03-21T01:30:28;13.43;;;7.38;;
78108;SDS011;67354;48.068;11.612;2023-03-21T01:32:53;12.10;;;7.22;;
78108;SDS011;67354;48.068;11.612;2023-03-21T01:35:19;14.70;;;6.93;;
78108;SDS011;67354;48.068;11.612;2023-03-21T01:37:44;11.93;;;6.57;;
78108;SDS011;67354;48.068;11.612;2023-03-21T01:40:10;8.65;;;5.63;;
78108;SDS011;67354;48.068;11.612;2023-03-21T01:42:42;9.23;;;6.22;;
78108;SDS011;67354;48.068;11.612;2023-03-21T01:48:10;10.70;;;6.07;;
78108;SDS011;67354;48.068;11.612;2023-03-21T01:50:36;9.95;;;5.68;;
78108;SDS011;67354;48.068;11.612;2023-03-21T01:53:02;8.27;;;6.18;;
78108;SDS011;67354;48.068;11.612;2023-03-21T01:55:28;8.75;;;5.78;;
78108;SDS011;67354;48.068;11.612;2023-03-21T01:57:54;10.23;;;6.38;;
78108;SDS011;67354;48.068;11.612;2023-03-21T02:00:20;9.48;;;6.18;;
78108;SDS011;67354;48.068;11.612;2023-03-21T02:02:48;8.45;;;6.00;;
78108;SDS011;67354;48.068;11.612;2023-03-21T02:05:18;9.30;;;6.35;;
78108;SDS011;67354;48.068;11.612;2023-03-21T02:07:47;7.90;;;6.00;;
78108;SDS011;67354;48.068;11.612;2023-03-21T02:10:14;8.32;;;5.95;;
78108;SDS011;67354;48.068;11.612;2023-03-21T02:12:40;8.45;;;5.90;;
78108;SDS011;67354;48.068;11.612;2023-03-21T02:15:06;11.23;;;5.60;;
78108;SDS011;67354;48.068;11.612;2023-03-21T02:17:34;8.73;;;5.80;;
78108;SDS011;67354;48.068;11.612;2023-03-21T02:23:06;9.73;;;6.03;;
78108;SDS011;67354;48.068;11.612;2023-03-21T02:26:01;9.18;;;5.15;;
78108;SDS011;67354;48.068;11.612;2023-03-21T02:28:47;9.27;;;5.60;;
78108;SDS011;67354;48.068;11.612;2023-03-21T02:39:12;8.32;;;6.03;;
78108;SDS011;67354;48.068;11.612;2023-03-21T02:46:57;6.55;;;5.47;;
78108;SDS011;67354;48.068;11.612;2023-03-21T02:49:28;8.52;;;5.57;;
78108;SDS011;67354;48.068;11.612;2023-03-21T02:51:55;7.25;;;5.03;;
78108;SDS011;67354;48.068;11.612;2023-03-21T02:54:22;7.72;;;5.45;;
78108;SDS011;67354;48.068;11.612;2023-03-21T02:56:48;8.15;;;5.82;;
78108;SDS011;67354;48.068;11.612;2023-03-21T02:59:15;7.60;;;5.30;;
78108;SDS011;67354;48.068;11.612;2023-03-21T03:01:41;9.48;;;5.55;;
78108;SDS011;67354;48.068;11.612;2023-03-21T03:04:26;10.60;;;5.53;;
78108;SDS011;67354;48.068;11.612;2023-03-21T03:09:32;8.05;;;5.30;;
78108;SDS011;67354;48.068;11.612;2023-03-21T03:12:06;6.88;;;5.57;;
78108;SDS011;67354;48.068;11.612;2023-03-21T03:14:44;10.10;;;5.53;;
78108;SDS011;67354;48.068;11.612;2023-03-21T03:22:39;8.32;;;5.30;;
78108;SDS011;67354;48.068;11.612;2023-03-21T03:25:11;8.48;;;6.20;;
78108;SDS011;67354;48.068;11.612;2023-03-21T03:27:39;8.57;;;6.07;;
78108;SDS011;67354;48.068;11.612;2023-03-21T03:30:07;10.35;;;5.72;;
78108;SDS011;67354;48.068;11.612;2023-03-21T03:32:44;8.18;;;5.50;;
78108;SDS011;67354;48.068;11.612;2023-03-21T03:35:14;7.35;;;5.72;;
78108;SDS011;67354;48.068;11.612;2023-03-21T03:37:42;8.38;;;5.60;;
78108;SDS011;67354;48.068;11.612;2023-03-21T03:40:12;9.70;;;6.13;;
78108;SDS011;67354;48.068;11.612;2023-03-21T03:42:53;9.10;;;6.18;;
78108;SDS011;67354;48.068;11.612;2023-03-21T03:45:19;8.68;;;5.88;;
78108;SDS011;67354;48.068;11.612;2023-03-21T03:51:05;7.93;;;5.72;;
78108;SDS011;67354;48.068;11.612;2023-03-21T03:53:33;8.77;;;5.65;;
78108;SDS011;67354;48.068;11.612;2023-03-21T03:56:02;10.55;;;5.63;;
78108;SDS011;67354;48.068;11.612;2023-03-21T03:58:29;8.75;;;5.10;;
78108;SDS011;67354;48.068;11.612;2023-03-21T04:00:55;7.18;;;5.82;;
78108;SDS011;67354;48.068;11.612;2023-03-21T04:03:21;7.68;;;5.63;;
78108;SDS011;67354;48.068;11.612;2023-03-21T04:05:46;10.07;;;5.70;;
78108;SDS011;67354;48.068;11.612;2023-03-21T04:08:13;7.40;;;5.17;;
78108;SDS011;67354;48.068;11.612;2023-03-21T04:10:39;11.25;;;5.35;;
78108;SDS011;67354;48.068;11.612;2023-03-21T04:13:06;12.02;;;5.78;;
78108;SDS011;67354;48.068;11.612;2023-03-21T04:15:31;7.10;;;5.43;;
78108;SDS011;67354;48.068;11.612;2023-03-21T04:17:56;7.63;;;5.10;;
78108;SDS011;67354;48.068;11.612;2023-03-21T04:20:22;7.20;;;4.97;;
78108;SDS011;67354;48.068;11.612;2023-03-21T04:22:47;8.43;;;5.70;;
78108;SDS011;67354;48.068;11.612;2023-03-21T04:25:13;9.77;;;5.32;;
78108;SDS011;67354;48.068;11.612;2023-03-21T04:27:38;7.63;;;4.95;;
78108;SDS011;67354;48.068;11.612;2023-03-21T04:30:04;7.35;;;4.85;;
78108;SDS011;67354;48.068;11.612;2023-03-21T04:32:31;7.70;;;5.20;;
78108;SDS011;67354;48.068;11.612;2023-03-21T04:34:57;8.95;;;5.47;;
78108;SDS011;67354;48.068;11.612;2023-03-21T04:37:23;8.70;;;5.40;;
78108;SDS011;67354;48.068;11.612;2023-03-21T04:39:49;7.37;;;4.90;;
78108;SDS011;67354;48.068;11.612;2023-03-21T04:42:15;9.23;;;5.25;;
78108;SDS011;67354;48.068;11.612;2023-03-21T04:44:42;8.52;;;5.15;;
78108;SDS011;67354;48.068;11.612;2023-03-21T04:47:09;7.90;;;5.78;;
78108;SDS011;67354;48.068;11.612;2023-03-21T04:49:35;8.82;;;5.03;;
78108;SDS011;67354;48.068;11.612;2023-03-21T04:52:00;8.15;;;5.68;;
78108;SDS011;67354;48.068;11.612;2023-03-21T04:54:25;7.67;;;5.80;;
78108;SDS011;67354;48.068;11.612;2023-03-21T04:56:51;8.33;;;5.73;;
78108;SDS011;67354;48.068;11.612;2023-03-21T04:59:16;8.10;;;5.70;;
78108;SDS011;67354;48.068;11.612;2023-03-21T05:01:42;8.02;;;5.45;;
78108;SDS011;67354;48.068;11.612;2023-03-21T05:04:09;10.07;;;5.45;;
78108;SDS011;67354;48.068;11.612;2023-03-21T05:06:36;7.55;;;5.10;;
78108;SDS011;67354;48.068;11.612;2023-03-21T05:09:01;7.80;;;5.30;;
78108;SDS011;67354;48.068;11.612;2023-03-21T05:11:31;7.50;;;4.95;;
78108;SDS011;67354;48.068;11.612;2023-03-21T05:13:59;8.38;;;5.68;;
78108;SDS011;67354;48.068;11.612;2023-03-21T05:16:25;7.93;;;5.32;;
78108;SDS011;67354;48.068;11.612;2023-03-21T05:18:54;28.23;;;12.50;;
78108;SDS011;67354;48.068;11.612;2023-03-21T05:21:27;9.73;;;6.07;;
78108;SDS011;67354;48.068;11.612;2023-03-21T05:23:53;9.30;;;6.20;;
78108;SDS011;67354;48.068;11.612;2023-03-21T05:26:19;8.50;;;6.00;;
78108;SDS011;67354;48.068;11.612;2023-03-21T05:28:46;8.00;;;6.22;;
78108;SDS011;67354;48.068;11.612;2023-03-21T05:31:15;8.85;;;6.40;;
78108;SDS011;67354;48.068;11.612;2023-03-21T05:33:44;10.73;;;7.35;;
78108;SDS011;67354;48.068;11.612;2023-03-21T05:36:10;8.85;;;6.18;;
78108;SDS011;67354;48.068;11.612;2023-03-21T05:38:35;10.55;;;6.20;;
78108;SDS011;67354;48.068;11.612;2023-03-21T05:41:01;9.18;;;5.68;;
78108;SDS011;67354;48.068;11.612;2023-03-21T05:43:26;7.00;;;5.03;;
78108;SDS011;67354;48.068;11.612;2023-03-21T05:45:52;8.77;;;6.03;;
78108;SDS011;67354;48.068;11.612;2023-03-21T05:48:17;9.50;;;5.97;;
78108;SDS011;67354;48.068;11.612;2023-03-21T05:50:43;7.32;;;5.72;;
78108;SDS011;67354;48.068;11.612;2023-03-21T05:53:08;7.63;;;5.72;;
78108;SDS011;67354;48.068;11.612;2023-03-21T05:55:34;8.63;;;5.57;;
78108;SDS011;67354;48.068;11.612;2023-03-21T05:58:00;8.82;;;6.22;;
78108;SDS011;67354;48.068;11.612;2023-03-21T06:00:25;8.17;;;5.23;;
78108;SDS011;67354;48.068;11.612;2023-03-21T06:02:50;8.57;;;5.53;;
78108;SDS011;67354;48.068;11.612;2023-03-21T06:05:16;9.07;;;6.13;;
78108;SDS011;67354;48.068;11.612;2023-03-21T06:07:41;9.37;;;5.73;;
78108;SDS011;67354;48.068;11.612;2023-03-21T06:10:07;9.17;;;6.00;;
78108;SDS011;67354;48.068;11.612;2023-03-21T06:12:32;9.05;;;6.22;;
78108;SDS011;67354;48.068;11.612;2023-03-21T06:14:58;14.63;;;7.15;;
78108;SDS011;67354;48.068;11.612;2023-03-21T06:17:24;7.72;;;5.50;;
78108;SDS011;67354;48.068;11.612;2023-03-21T06:19:49;8.18;;;5.50;;
78108;SDS011;67354;48.068;11.612;2023-03-21T06:22:15;7.45;;;5.63;;
78108;SDS011;67354;48.068;11.612;2023-03-21T06:24:40;8.60;;;5.67;;
78108;SDS011;67354;48.068;11.612;2023-03-21T06:27:05;9.40;;;5.57;;
78108;SDS011;67354;48.068;11.612;2023-03-21T06:29:31;10.38;;;5.65;;
78108;SDS011;67354;48.068;11.612;2023-03-21T06:31:56;8.85;;;5.72;;
78108;SDS011;67354;48.068;11.612;2023-03-21T06:34:21;9.13;;;5.50;;
78108;SDS011;67354;48.068;11.612;2023-03-21T06:36:47;6.93;;;5.28;;
78108;SDS011;67354;48.068;11.612;2023-03-21T06:39:12;8.45;;;5.25;;
78108;SDS011;67354;48.068;11.612;2023-03-21T06:41:39;8.75;;;5.20;;
78108;SDS011;67354;48.068;11.612;2023-03-21T06:44:05;8.60;;;5.47;;
78108;SDS011;67354;48.068;11.612;2023-03-21T06:46:30;8.27;;;5.25;;
78108;SDS011;67354;48.068;11.612;2023-03-21T06:48:56;7.43;;;5.40;;
78108;SDS011;67354;48.068;11.612;2023-03-21T06:51:21;7.47;;;5.68;;
78108;SDS011;67354;48.068;11.612;2023-03-21T06:53:46;8.37;;;5.67;;
78108;SDS011;67354;48.068;11.612;2023-03-21T06:56:12;8.07;;;5.45;;
78108;SDS011;67354;48.068;11.612;2023-03-21T06:58:38;8.07;;;5.50;;
78108;SDS011;67354;48.068;11.612;2023-03-21T07:01:04;8.40;;;5.38;;
78108;SDS011;67354;48.068;11.612;2023-03-21T07:03:29;9.35;;;5.60;;
78108;SDS011;67354;48.068;11.612;2023-03-21T07:05:55;7.35;;;5.18;;
78108;SDS011;67354;48.068;11.612;2023-03-21T07:08:21;7.55;;;5.40;;
78108;SDS011;67354;48.068;11.612;2023-03-21T07:10:47;7.53;;;5.00;;
78108;SDS011;67354;48.068;11.612;2023-03-21T07:13:12;9.20;;;4.90;;
78108;SDS011;67354;48.068;11.612;2023-03-21T07:15:38;6.07;;;4.85;;
78108;SDS011;67354;48.068;11.612;2023-03-21T07:18:05;6.70;;;4.78;;
78108;SDS011;67354;48.068;11.612;2023-03-21T07:20:32;8.15;;;5.15;;
78108;SDS011;67354;48.068;11.612;2023-03-21T07:22:58;7.70;;;5.00;;
78108;SDS011;67354;48.068;11.612;2023-03-21T07:25:23;7.55;;;5.32;;
78108;SDS011;67354;48.068;11.612;2023-03-21T07:27:49;6.28;;;5.00;;
78108;SDS011;67354;48.068;11.612;2023-03-21T07:30:15;7.45;;;6.32;;
78108;SDS011;67354;48.068;11.612;2023-03-21T07:32:41;8.45;;;5.60;;
78108;SDS011;67354;48.068;11.612;2023-03-21T07:35:07;5.82;;;4.93;;
78108;SDS011;67354;48.068;11.612;2023-03-21T07:37:35;8.80;;;5.28;;
78108;SDS011;67354;48.068;11.612;2023-03-21T07:40:00;7.17;;;4.87;;
78108;SDS011;67354;48.068;11.612;2023-03-21T07:42:26;8.60;;;5.80;;
78108;SDS011;67354;48.068;11.612;2023-03-21T07:44:52;6.65;;;4.80;;
78108;SDS011;67354;48.068;11.612;2023-03-21T07:47:19;6.78;;;5.38;;
78108;SDS011;67354;48.068;11.612;2023-03-21T07:49:44;9.02;;;5.53;;
78108;SDS011;67354;48.068;11.612;2023-03-21T07:52:10;8.75;;;6.40;;
78108;SDS011;67354;48.068;11.612;2023-03-21T07:54:36;7.18;;;5.50;;
78108;SDS011;67354;48.068;11.612;2023-03-21T07:57:02;9.65;;;5.35;;
78108;SDS011;67354;48.068;11.612;2023-03-21T07:59:28;8.30;;;4.60;;
78108;SDS011;67354;48.068;11.612;2023-03-21T08:01:53;8.52;;;5.60;;
78108;SDS011;67354;48.068;11.612;2023-03-21T08:04:19;7.65;;;5.45;;
78108;SDS011;67354;48.068;11.612;2023-03-21T08:06:56;8.00;;;4.93;;
78108;SDS011;67354;48.068;11.612;2023-03-21T08:09:22;10.60;;;6.05;;
78108;SDS011;67354;48.068;11.612;2023-03-21T08:11:47;7.00;;;5.22;;
78108;SDS011;67354;48.068;11.612;2023-03-21T08:14:12;7.72;;;5.65;;
78108;SDS011;67354;48.068;11.612;2023-03-21T08:16:38;8.80;;;5.40;;
78108;SDS011;67354;48.068;11.612;2023-03-21T08:19:03;9.40;;;5.60;;
78108;SDS011;67354;48.068;11.612;2023-03-21T08:21:28;8.17;;;5.30;;
78108;SDS011;67354;48.068;11.612;2023-03-21T08:23:54;8.27;;;5.80;;
78108;SDS011;67354;48.068;11.612;2023-03-21T08:26:19;10.80;;;5.85;;
78108;SDS011;67354;48.068;11.612;2023-03-21T08:28:45;8.68;;;5.40;;
78108;SDS011;67354;48.068;11.612;2023-03-21T08:31:11;7.82;;;5.25;;
78108;SDS011;67354;48.068;11.612;2023-03-21T08:33:37;8.35;;;5.78;;
78108;SDS011;67354;48.068;11.612;2023-03-21T08:36:03;9.00;;;5.38;;
78108;SDS011;67354;48.068;11.612;2023-03-21T08:38:29;11.20;;;5.88;;
78108;SDS011;67354;48.068;11.612;2023-03-21T08:40:57;10.48;;;5.78;;
78108;SDS011;67354;48.068;11.612;2023-03-21T08:43:24;9.13;;;5.43;;
78108;SDS011;67354;48.068;11.612;2023-03-21T08:45:50;12.13;;;6.30;;
78108;SDS011;67354;48.068;11.612;2023-03-21T08:48:16;8.85;;;6.20;;
78108;SDS011;67354;48.068;11.612;2023-03-21T08:50:42;9.23;;;5.63;;
78108;SDS011;67354;48.068;11.612;2023-03-21T08:53:07;10.65;;;5.88;;
78108;SDS011;67354;48.068;11.612;2023-03-21T08:55:33;9.90;;;5.78;;
78108;SDS011;67354;48.068;11.612;2023-03-21T08:58:00;11.80;;;5.75;;
78108;SDS011;67354;48.068;11.612;2023-03-21T09:00:26;9.32;;;6.05;;
78108;SDS011;67354;48.068;11.612;2023-03-21T09:02:52;9.05;;;5.75;;
78108;SDS011;67354;48.068;11.612;2023-03-21T09:05:18;12.00;;;6.00;;
78108;SDS011;67354;48.068;11.612;2023-03-21T09:07:44;10.40;;;6.25;;
78108;SDS011;67354;48.068;11.612;2023-03-21T09:10:17;8.02;;;5.32;;
78108;SDS011;67354;48.068;11.612;2023-03-21T09:12:44;10.23;;;5.70;;
78108;SDS011;67354;48.068;11.612;2023-03-21T09:15:10;8.65;;;5.80;;
78108;SDS011;67354;48.068;11.612;2023-03-21T09:17:37;9.10;;;5.55;;
78108;SDS011;67354;48.068;11.612;2023-03-21T09:20:11;9.90;;;5.40;;
78108;SDS011;67354;48.068;11.612;2023-03-21T09:22:42;9.45;;;5.90;;
78108;SDS011;67354;48.068;11.612;2023-03-21T09:25:10;7.22;;;5.10;;
78108;SDS011;67354;48.068;11.612;2023-03-21T09:27:37;12.40;;;5.40;;
78108;SDS011;67354;48.068;11.612;2023-03-21T09:30:03;9.95;;;5.05;;
78108;SDS011;67354;48.068;11.612;2023-03-21T09:32:30;8.60;;;5.28;;
78108;SDS011;67354;48.068;11.612;2023-03-21T09:34:55;7.35;;;4.55;;
78108;SDS011;67354;48.068;11.612;2023-03-21T09:37:21;7.18;;;4.60;;
78108;SDS011;67354;48.068;11.612;2023-03-21T09:39:47;7.18;;;4.93;;
78108;SDS011;67354;48.068;11.612;2023-03-21T09:47:31;7.75;;;6.03;;
78108;SDS011;67354;48.068;11.612;2023-03-21T09:50:23;7.55;;;4.90;;
78108;SDS011;67354;48.068;11.612;2023-03-21T09:53:02;11.55;;;4.93;;
78108;SDS011;67354;48.068;11.612;2023-03-21T09:55:31;8.18;;;5.05;;
78108;SDS011;67354;48.068;11.612;2023-03-21T09:58:01;8.13;;;5.00;;
78108;SDS011;67354;48.068;11.612;2023-03-21T10:00:31;6.75;;;5.05;;
78108;SDS011;67354;48.068;11.612;2023-03-21T10:03:02;9.63;;;6.03;;
78108;SDS011;67354;48.068;11.612;2023-03-21T10:05:31;9.93;;;5.18;;
78108;SDS011;67354;48.068;11.612;2023-03-21T10:08:08;11.45;;;5.88;;
78108;SDS011;67354;48.068;11.612;2023-03-21T10:10:48;9.90;;;5.50;;
78108;SDS011;67354;48.068;11.612;2023-03-21T10:13:16;9.45;;;5.53;;
78108;SDS011;67354;48.068;11.612;2023-03-21T10:15:45;8.23;;;4.80;;
78108;SDS011;67354;48.068;11.612;2023-03-21T10:18:23;8.57;;;4.90;;
78108;SDS011;67354;48.068;11.612;2023-03-21T10:20:51;11.10;;;5.47;;
78108;SDS011;67354;48.068;11.612;2023-03-21T10:23:18;8.98;;;5.30;;
78108;SDS011;67354;48.068;11.612;2023-03-21T10:25:47;8.00;;;4.60;;
78108;SDS011;67354;48.068;11.612;2023-03-21T10:28:17;6.32;;;4.78;;
78108;SDS011;67354;48.068;11.612;2023-03-21T10:33:14;6.05;;;4.68;;
78108;SDS011;67354;48.068;11.612;2023-03-21T10:35:43;6.82;;;4.65;;
78108;SDS011;67354;48.068;11.612;2023-03-21T10:38:12;7.80;;;4.88;;
78108;SDS011;67354;48.068;11.612;2023-03-21T10:40:41;6.90;;;4.97;;
78108;SDS011;67354;48.068;11.612;2023-03-21T10:45:49;8.88;;;4.85;;
78108;SDS011;67354;48.068;11.612;2023-03-21T10:48:15;8.75;;;4.88;;
78108;SDS011;67354;48.068;11.612;2023-03-21T10:50:41;6.20;;;4.03;;
78108;SDS011;67354;48.068;11.612;2023-03-21T10:53:12;6.72;;;4.22;;
78108;SDS011;67354;48.068;11.612;2023-03-21T10:55:40;7.25;;;4.78;;
78108;SDS011;67354;48.068;11.612;2023-03-21T10:58:07;6.57;;;4.40;;
78108;SDS011;67354;48.068;11.612;2023-03-21T11:00:38;5.97;;;4.45;;
78108;SDS011;67354;48.068;11.612;2023-03-21T11:03:05;9.07;;;4.47;;
78108;SDS011;67354;48.068;11.612;2023-03-21T11:05:35;7.28;;;4.05;;
78108;SDS011;67354;48.068;11.612;2023-03-21T11:08:03;8.80;;;4.78;;
78108;SDS011;67354;48.068;11.612;2023-03-21T11:10:32;6.30;;;4.03;;
78108;SDS011;67354;48.068;11.612;2023-03-21T11:13:15;6.60;;;4.60;;
78108;SDS011;67354;48.068;11.612;2023-03-21T11:15:48;7.40;;;4.15;;
78108;SDS011;67354;48.068;11.612;2023-03-21T11:18:21;7.20;;;4.32;;
78108;SDS011;67354;48.068;11.612;2023-03-21T11:20:54;6.25;;;4.22;;
78108;SDS011;67354;48.068;11.612;2023-03-21T11:23:24;7.38;;;4.22;;
78108;SDS011;67354;48.068;11.612;2023-03-21T11:25:52;5.57;;;3.95;;
78108;SDS011;67354;48.068;11.612;2023-03-21T11:28:18;6.47;;;3.72;;
78108;SDS011;67354;48.068;11.612;2023-03-21T11:30:51;5.95;;;3.95;;
78108;SDS011;67354;48.068;11.612;2023-03-21T11:33:19;6.18;;;4.22;;
78108;SDS011;67354;48.068;11.612;2023-03-21T11:35:56;5.88;;;3.88;;
78108;SDS011;67354;48.068;11.612;2023-03-21T11:38:24;8.75;;;4.38;;
78108;SDS011;67354;48.068;11.612;2023-03-21T11:40:53;6.57;;;4.43;;
78108;SDS011;67354;48.068;11.612;2023-03-21T11:43:26;6.28;;;4.10;;
78108;SDS011;67354;48.068;11.612;2023-03-21T11:48:40;6.05;;;4.18;;
78108;SDS011;67354;48.068;11.612;2023-03-21T11:53:46;6.82;;;4.10;;
78108;SDS011;67354;48.068;11.612;2023-03-21T11:56:19;7.25;;;4.30;;
78108;SDS011;67354;48.068;11.612;2023-03-21T12:01:30;5.93;;;4.10;;
78108;SDS011;67354;48.068;11.612;2023-03-21T12:04:24;5.72;;;3.85;;
78108;SDS011;67354;48.068;11.612;2023-03-21T12:09:31;5.80;;;4.10;;
78108;SDS011;67354;48.068;11.612;2023-03-21T12:15:04;7.13;;;4.18;;
78108;SDS011;67354;48.068;11.612;2023-03-21T12:17:51;6.60;;;3.80;;
78108;SDS011;67354;48.068;11.612;2023-03-21T12:20:22;6.68;;;4.82;;
78108;SDS011;67354;48.068;11.612;2023-03-21T12:23:02;5.78;;;4.07;;
78108;SDS011;67354;48.068;11.612;2023-03-21T12:25:44;4.32;;;2.70;;
78108;SDS011;67354;48.068;11.612;2023-03-21T12:34:07;3.45;;;2.40;;
78108;SDS011;67354;48.068;11.612;2023-03-21T12:39:34;4.65;;;2.80;;
78108;SDS011;67354;48.068;11.612;2023-03-21T12:44:53;3.40;;;2.50;;
78108;SDS011;67354;48.068;11.612;2023-03-21T12:47:23;3.63;;;2.55;;
78108;SDS011;67354;48.068;11.612;2023-03-21T12:49:52;3.63;;;2.42;;
78108;SDS011;67354;48.068;11.612;2023-03-21T12:52:43;3.20;;;2.42;;
78108;SDS011;67354;48.068;11.612;2023-03-21T12:55:15;3.40;;;2.22;;
78108;SDS011;67354;48.068;11.612;2023-03-21T12:57:49;3.40;;;2.40;;
78108;SDS011;67354;48.068;11.612;2023-03-21T13:00:29;3.30;;;2.30;;
78108;SDS011;67354;48.068;11.612;2023-03-21T13:02:59;3.60;;;1.92;;
78108;SDS011;67354;48.068;11.612;2023-03-21T13:05:28;4.38;;;1.77;;
78108;SDS011;67354;48.068;11.612;2023-03-21T13:08:00;3.50;;;2.13;;
78108;SDS011;67354;48.068;11.612;2023-03-21T13:10:27;4.63;;;2.63;;
78108;SDS011;67354;48.068;11.612;2023-03-21T13:21:20;4.30;;;2.05;;
78108;SDS011;67354;48.068;11.612;2023-03-21T13:24:16;3.72;;;2.42;;
78108;SDS011;67354;48.068;11.612;2023-03-21T13:35:11;2.97;;;1.80;;
78108;SDS011;67354;48.068;11.612;2023-03-21T13:38:00;2.40;;;1.73;;
78108;SDS011;67354;48.068;11.612;2023-03-21T13:43:42;3.05;;;1.50;;
78108;SDS011;67354;48.068;11.612;2023-03-21T13:46:12;3.03;;;1.77;;
78108;SDS011;67354;48.068;11.612;2023-03-21T13:48:41;3.40;;;1.70;;
78108;SDS011;67354;48.068;11.612;2023-03-21T13:51:07;2.28;;;1.65;;
78108;SDS011;67354;48.068;11.612;2023-03-21T13:53:39;2.80;;;1.98;;
78108;SDS011;67354;48.068;11.612;2023-03-21T14:04:03;3.95;;;1.90;;
78108;SDS011;67354;48.068;11.612;2023-03-21T14:06:43;4.28;;;1.80;;
78108;SDS011;67354;48.068;11.612;2023-03-21T14:09:14;3.13;;;1.90;;
78108;SDS011;67354;48.068;11.612;2023-03-21T14:11:44;2.65;;;1.80;;
78108;SDS011;67354;48.068;11.612;2023-03-21T14:14:12;4.82;;;2.05;;
78108;SDS011;67354;48.068;11.612;2023-03-21T14:16:38;2.70;;;1.90;;
78108;SDS011;67354;48.068;11.612;2023-03-21T14:19:04;2.90;;;1.75;;
78108;SDS011;67354;48.068;11.612;2023-03-21T14:21:31;2.50;;;1.98;;
78108;SDS011;67354;48.068;11.612;2023-03-21T14:23:59;3.60;;;2.03;;
78108;SDS011;67354;48.068;11.612;2023-03-21T14:26:25;2.95;;;2.20;;
78108;SDS011;67354;48.068;11.612;2023-03-21T14:28:51;3.78;;;2.30;;
78108;SDS011;67354;48.068;11.612;2023-03-21T14:31:17;2.45;;;2.17;;
78108;SDS011;67354;48.068;11.612;2023-03-21T14:33:49;2.92;;;1.90;;
78108;SDS011;67354;48.068;11.612;2023-03-21T14:36:19;3.45;;;1.95;;
78108;SDS011;67354;48.068;11.612;2023-03-21T14:39:02;3.22;;;2.28;;
78108;SDS011;67354;48.068;11.612;2023-03-21T14:41:29;4.28;;;2.50;;
78108;SDS011;67354;48.068;11.612;2023-03-21T14:46:50;6.15;;;2.30;;
78108;SDS011;67354;48.068;11.612;2023-03-21T14:49:18;4.78;;;2.90;;
78108;SDS011;67354;48.068;11.612;2023-03-21T14:51:46;5.53;;;3.80;;
78108;SDS011;67354;48.068;11.612;2023-03-21T14:54:13;5.28;;;3.10;;
78108;SDS011;67354;48.068;11.612;2023-03-21T14:56:42;4.30;;;2.85;;
78108;SDS011;67354;48.068;11.612;2023-03-21T14:59:12;3.58;;;3.17;;
78108;SDS011;67354;48.068;11.612;2023-03-21T15:01:40;4.07;;;3.00;;
78108;SDS011;67354;48.068;11.612;2023-03-21T15:04:06;6.13;;;2.78;;
78108;SDS011;67354;48.068;11.612;2023-03-21T15:06:32;4.65;;;3.25;;
78108;SDS011;67354;48.068;11.612;2023-03-21T15:09:03;4.95;;;3.08;;
78108;SDS011;67354;48.068;11.612;2023-03-21T15:13:59;5.13;;;3.10;;
78108;SDS011;67354;48.068;11.612;2023-03-21T15:16:27;5.35;;;3.45;;
78108;SDS011;67354;48.068;11.612;2023-03-21T15:18:53;5.03;;;3.40;;
78108;SDS011;67354;48.068;11.612;2023-03-21T15:21:20;4.95;;;2.88;;
78108;SDS011;67354;48.068;11.612;2023-03-21T15:23:58;3.58;;;2.80;;
78108;SDS011;67354;48.068;11.612;2023-03-21T15:26:32;3.92;;;2.80;;
78108;SDS011;67354;48.068;11.612;2023-03-21T15:28:58;5.35;;;3.00;;
78108;SDS011;67354;48.068;11.612;2023-03-21T15:31:27;4.18;;;2.88;;
78108;SDS011;67354;48.068;11.612;2023-03-21T15:33:54;4.65;;;2.80;;
78108;SDS011;67354;48.068;11.612;2023-03-21T15:36:35;5.70;;;2.80;;
78108;SDS011;67354;48.068;11.612;2023-03-21T15:39:10;5.45;;;3.85;;
78108;SDS011;67354;48.068;11.612;2023-03-21T15:41:37;4.22;;;3.58;;
78108;SDS011;67354;48.068;11.612;2023-03-21T15:46:44;4.15;;;3.42;;
78108;SDS011;67354;48.068;11.612;2023-03-21T15:51:54;6.00;;;3.57;;
78108;SDS011;67354;48.068;11.612;2023-03-21T15:54:24;6.68;;;4.30;;
78108;SDS011;67354;48.068;11.612;2023-03-21T15:56:56;5.90;;;3.65;;
78108;SDS011;67354;48.068;11.612;2023-03-21T15:59:29;6.55;;;3.80;;
78108;SDS011;67354;48.068;11.612;2023-03-21T16:01:57;8.23;;;4.57;;
78108;SDS011;67354;48.068;11.612;2023-03-21T16:04:22;8.77;;;4.78;;
78108;SDS011;67354;48.068;11.612;2023-03-21T16:06:56;6.63;;;4.45;;
78108;SDS011;67354;48.068;11.612;2023-03-21T16:09:23;5.05;;;3.92;;
78108;SDS011;67354;48.068;11.612;2023-03-21T16:14:22;6.50;;;4.47;;
78108;SDS011;67354;48.068;11.612;2023-03-21T16:16:51;6.18;;;4.00;;
78108;SDS011;67354;48.068;11.612;2023-03-21T16:19:17;5.38;;;3.85;;
78108;SDS011;67354;48.068;11.612;2023-03-21T16:21:42;7.17;;;4.07;;
78108;SDS011;67354;48.068;11.612;2023-03-21T16:24:08;10.45;;;5.63;;